Accueil
METAR-TAF:

METAR-TAF

Aéroports :

Sabadell, Espagne

latitude: 41-31N, longitude: 002-06E, altitude: 250 m

Observation

Le bulletin a été fait il y a 37 minutes, à 16:30 UTC
Vent 10 kt de est/sud-est, variant entre est et sud/sud-est
Température 26°C
Humidité 70%
Pression 1015 hPa
Visibilité 10 km ou plus
Quelques nuages à une hauteur de 3500 ft

METAR: LELL 281630Z 12010KT 080V150 9999 FEW035 26/20 Q1015

Heure: 19:07 (17:07 UTC)

Prévision

Le bulletin a été fait il y a 3 heures et 7 minutes, à 14:00 UTC
Prévision valable du 28 à 15 UTC au 29 à 15 UTC
Vent 10 kt de sud-est
Visibilité 10 km ou plus
Quelques nuages à une hauteur de 3000 ft
Evoluant progressivement
du 28 à 20 UTC au 28 à 22 UTC
Vent 3 kt de direction variable
Evoluant progressivement
du 29 à 07 UTC au 29 à 09 UTC
Vent 10 kt de sud

TAF: LELL 281400Z 2815/2915 13010KT 9999 FEW030 TX33/2913Z TN19/2905Z BECMG 2820/2822 VRB03KT BECMG 2907/2909 18010KT

Observations et prévisions météorologiques de plus de 4000 aéroports (messages METAR et TAF).

Les stations disponibles sont représentées par des disques jaunes et rouges sur la carte.

Passer la souris dessus pour voir le nom de la station.

Cliquer dessus pour voir les observations et prévisions météorologiques.

Pour changer de carte: cliquez sur les boutons verts avec une croix noire pour zoomer, sur le bouton vert avec un tiret pour effectuer un zoom arrière, ou sur les flèches vertes pour les cartes adjacentes.


METAR-TAF: